createdAt,value
2023-03-17T00:00:28.483Z,3.24
2023-03-17T00:01:32.402Z,3.19
2023-03-17T00:02:37.342Z,3.19
2023-03-17T00:03:55.431Z,3.19
2023-03-17T00:04:59.677Z,3.11
2023-03-17T00:06:05.544Z,3.14
2023-03-17T00:07:17.088Z,3.17
2023-03-17T00:08:29.986Z,3.15
2023-03-17T00:09:33.874Z,3.16
2023-03-17T00:10:37.850Z,3.17
2023-03-17T00:11:43.497Z,3.18
2023-03-17T00:12:52.263Z,3.17
2023-03-17T00:13:56.741Z,3.14
2023-03-17T00:15:00.254Z,3.12
2023-03-17T00:16:13.264Z,3.13
2023-03-17T00:17:16.864Z,3.11
2023-03-17T00:18:21.555Z,3.08
2023-03-17T00:19:35.798Z,3.02
2023-03-17T00:20:40.135Z,3.03
2023-03-17T00:21:45.334Z,3.04
2023-03-17T00:22:49.251Z,3.05
2023-03-17T00:23:53.038Z,3.03
2023-03-17T00:24:56.751Z,3.04
2023-03-17T00:26:00.847Z,2.98
2023-03-17T00:27:13.993Z,2.96
2023-03-17T00:28:22.215Z,2.98
2023-03-17T00:29:27.140Z,2.96
2023-03-17T00:30:31.478Z,2.97
2023-03-17T00:31:36.636Z,2.96
2023-03-17T00:32:41.156Z,2.95
2023-03-17T00:33:48.147Z,2.91
2023-03-17T00:34:52.642Z,2.89
2023-03-17T00:35:58.794Z,2.91
2023-03-17T00:37:02.439Z,2.87
2023-03-17T00:38:15.038Z,2.89
2023-03-17T00:39:20.442Z,2.89
2023-03-17T00:40:32.705Z,2.89
2023-03-17T00:41:36.421Z,2.86
2023-03-17T00:42:40.992Z,2.89
2023-03-17T00:43:45.830Z,2.85
2023-03-17T00:44:50.278Z,2.87
2023-03-17T00:45:55.164Z,2.86
2023-03-17T00:46:59.429Z,2.85
2023-03-17T00:48:39.411Z,2.81
2023-03-17T00:49:43.660Z,2.80
2023-03-17T00:50:50.470Z,2.81
2023-03-17T00:51:54.474Z,2.80
2023-03-17T00:52:58.849Z,2.79
2023-03-17T00:54:02.559Z,2.80
2023-03-17T00:55:09.161Z,2.73
2023-03-17T00:56:22.258Z,2.74
2023-03-17T00:57:29.837Z,2.74
2023-03-17T00:58:35.029Z,2.68
2023-03-17T00:59:44.603Z,2.68
2023-03-17T01:00:48.990Z,2.63
2023-03-17T01:01:54.138Z,2.66
2023-03-17T01:02:58.163Z,2.66
2023-03-17T01:04:02.054Z,2.64
2023-03-17T01:05:08.298Z,2.65
2023-03-17T01:06:14.956Z,2.65
2023-03-17T01:07:18.922Z,2.63
2023-03-17T01:08:24.077Z,2.64
2023-03-17T01:09:30.955Z,2.63
2023-03-17T01:10:35.085Z,2.60
2023-03-17T01:11:42.334Z,2.60
2023-03-17T01:12:46.604Z,2.62
2023-03-17T01:13:51.305Z,2.62
2023-03-17T01:14:55.630Z,2.61
2023-03-17T01:15:59.986Z,2.59
2023-03-17T01:17:03.813Z,2.58
2023-03-17T01:18:07.521Z,2.58
2023-03-17T01:19:17.135Z,2.56
2023-03-17T01:20:25.204Z,2.57
2023-03-17T01:21:29.781Z,2.55
2023-03-17T01:22:34.306Z,2.58
2023-03-17T01:23:39.944Z,2.57
2023-03-17T01:24:44.135Z,2.54
2023-03-17T01:25:47.773Z,2.56
2023-03-17T01:26:51.953Z,2.57
2023-03-17T01:27:59.316Z,2.56
2023-03-17T01:29:04.910Z,2.56
2023-03-17T01:30:20.587Z,2.56
2023-03-17T01:31:24.452Z,2.56
2023-03-17T01:32:28.516Z,2.51
2023-03-17T01:33:32.371Z,2.50
2023-03-17T01:34:35.958Z,2.51
2023-03-17T01:35:41.476Z,2.52
2023-03-17T01:36:49.147Z,2.52
2023-03-17T01:37:53.894Z,2.50
2023-03-17T01:38:59.046Z,2.48
2023-03-17T01:40:02.798Z,2.43
2023-03-17T01:41:11.178Z,2.43
2023-03-17T01:42:15.630Z,2.42
2023-03-17T01:43:28.387Z,2.43
2023-03-17T01:44:33.166Z,2.41
2023-03-17T01:46:34.461Z,2.41
2023-03-17T01:47:41.051Z,2.37
2023-03-17T01:48:54.557Z,2.36
2023-03-17T01:50:07.572Z,2.29
2023-03-17T01:51:19.498Z,2.30
2023-03-17T01:52:24.309Z,2.28
2023-03-17T01:53:29.387Z,2.27
2023-03-17T01:54:48.271Z,2.27
2023-03-17T01:55:53.660Z,2.30
2023-03-17T01:57:07.838Z,2.28
2023-03-17T01:58:12.944Z,2.25
2023-03-17T01:59:26.061Z,2.26
2023-03-17T02:00:31.574Z,2.21
2023-03-17T02:01:43.660Z,2.24
2023-03-17T02:02:55.609Z,2.22
2023-03-17T02:04:01.022Z,2.19
2023-03-17T02:05:09.621Z,2.20
2023-03-17T02:06:14.442Z,2.20
2023-03-17T02:07:22.291Z,2.17
2023-03-17T02:08:26.742Z,2.15
2023-03-17T02:09:32.620Z,2.16
2023-03-17T02:10:36.476Z,2.19
2023-03-17T02:11:42.334Z,2.19
2023-03-17T02:12:55.566Z,2.20
2023-03-17T02:13:59.604Z,2.17
2023-03-17T02:15:14.911Z,2.17
2023-03-17T02:16:19.544Z,2.09
2023-03-17T02:17:26.440Z,2.13
2023-03-17T02:18:30.247Z,2.15
2023-03-17T02:19:37.697Z,2.11
2023-03-17T02:20:41.571Z,2.13
2023-03-17T02:21:55.216Z,2.14
2023-03-17T02:23:00.651Z,2.12
2023-03-17T02:24:12.870Z,2.14
2023-03-17T02:25:23.576Z,2.11
2023-03-17T02:26:31.390Z,2.12
2023-03-17T02:27:45.207Z,2.09
2023-03-17T02:28:49.459Z,2.12
2023-03-17T02:29:55.705Z,2.08
2023-03-17T02:30:59.551Z,2.09
2023-03-17T02:32:05.611Z,2.09
2023-03-17T02:33:12.057Z,2.05
2023-03-17T02:34:16.468Z,2.07
2023-03-17T02:35:20.740Z,2.07
2023-03-17T02:36:25.354Z,2.08
2023-03-17T02:37:29.644Z,2.04
2023-03-17T02:38:40.193Z,2.03
2023-03-17T02:39:47.497Z,1.94
2023-03-17T02:40:52.149Z,1.97
2023-03-17T02:41:56.764Z,2.01
2023-03-17T02:43:00.555Z,1.99
2023-03-17T02:44:04.733Z,2.01
2023-03-17T02:45:14.535Z,1.94
2023-03-17T02:46:18.836Z,1.97
2023-03-17T02:47:22.595Z,1.99
2023-03-17T02:48:26.501Z,1.99
2023-03-17T02:49:31.911Z,1.98
2023-03-17T02:50:36.260Z,2.01
2023-03-17T02:51:40.251Z,2.01
2023-03-17T02:52:43.854Z,2.00
2023-03-17T02:53:48.462Z,2.01
2023-03-17T02:54:52.359Z,1.96
2023-03-17T02:55:56.480Z,2.01
2023-03-17T02:57:01.110Z,1.97
2023-03-17T02:58:04.968Z,1.96
2023-03-17T02:59:09.856Z,1.97
2023-03-17T03:00:14.444Z,1.95
2023-03-17T03:01:19.410Z,1.93
2023-03-17T03:02:22.975Z,1.93
2023-03-17T03:03:26.744Z,1.90
2023-03-17T03:04:30.743Z,1.89
2023-03-17T03:05:35.433Z,1.78
2023-03-17T03:06:48.368Z,1.79
2023-03-17T03:07:52.392Z,1.83
2023-03-17T03:08:56.077Z,1.86
2023-03-17T03:10:00.696Z,1.87
2023-03-17T03:11:05.439Z,1.86
2023-03-17T03:12:14.659Z,1.87
2023-03-17T03:13:18.854Z,1.86
2023-03-17T03:14:23.326Z,1.87
2023-03-17T03:15:27.159Z,1.87
2023-03-17T03:16:31.308Z,1.87
2023-03-17T03:17:34.934Z,1.88
2023-03-17T03:18:38.965Z,1.81
2023-03-17T03:19:42.924Z,1.79
2023-03-17T03:20:47.422Z,1.80
2023-03-17T03:21:51.349Z,1.81
2023-03-17T03:22:55.209Z,1.82
2023-03-17T03:23:59.048Z,1.77
2023-03-17T03:25:02.780Z,1.82
2023-03-17T03:26:06.293Z,1.80
2023-03-17T03:27:11.106Z,1.83
2023-03-17T03:28:14.946Z,1.85
2023-03-17T03:29:18.809Z,1.86
2023-03-17T03:30:24.174Z,1.85
2023-03-17T03:31:28.334Z,1.89
2023-03-17T03:32:32.213Z,1.89
2023-03-17T03:33:37.128Z,1.88
2023-03-17T03:34:41.357Z,1.89
2023-03-17T03:35:45.822Z,1.89
2023-03-17T03:36:49.692Z,1.86
2023-03-17T03:37:53.807Z,1.85
2023-03-17T03:38:58.036Z,1.84
2023-03-17T03:40:01.584Z,1.83
2023-03-17T03:41:06.513Z,1.81
2023-03-17T03:42:12.379Z,1.82
2023-03-17T03:43:23.429Z,1.81
2023-03-17T03:44:28.007Z,1.79
2023-03-17T03:45:31.778Z,1.76
2023-03-17T03:46:35.742Z,1.68
2023-03-17T03:47:39.858Z,1.69
2023-03-17T03:48:43.794Z,1.72
2023-03-17T03:49:47.927Z,1.74
2023-03-17T03:50:55.426Z,1.73
2023-03-17T03:51:59.317Z,1.73
2023-03-17T03:53:03.662Z,1.72
2023-03-17T03:54:08.390Z,1.71
2023-03-17T03:55:12.490Z,1.69
2023-03-17T03:56:16.241Z,1.67
2023-03-17T03:57:20.583Z,1.67
2023-03-17T03:58:24.471Z,1.67
2023-03-17T03:59:28.164Z,1.67
2023-03-17T04:00:32.660Z,1.64
2023-03-17T04:01:37.588Z,1.65
2023-03-17T04:02:43.528Z,1.65
2023-03-17T04:03:47.506Z,1.65
2023-03-17T04:04:51.963Z,1.66
2023-03-17T04:05:57.833Z,1.68
2023-03-17T04:07:02.229Z,1.66
2023-03-17T04:08:07.532Z,1.65
2023-03-17T04:09:11.313Z,1.67
2023-03-17T04:10:18.316Z,1.68
2023-03-17T04:11:21.786Z,1.68
2023-03-17T04:12:26.490Z,1.66
2023-03-17T04:13:30.866Z,1.66
2023-03-17T04:14:35.327Z,1.66
2023-03-17T04:15:39.078Z,1.65
2023-03-17T04:16:43.598Z,1.64
2023-03-17T04:17:47.824Z,1.59
2023-03-17T04:18:51.672Z,1.66
2023-03-17T04:19:55.440Z,1.65
2023-03-17T04:21:00.109Z,1.63
2023-03-17T04:22:05.077Z,1.66
2023-03-17T04:23:09.067Z,1.62
2023-03-17T04:24:13.273Z,1.62
2023-03-17T04:25:17.067Z,1.60
2023-03-17T04:26:23.417Z,1.60
2023-03-17T04:27:27.418Z,1.58
2023-03-17T04:28:31.860Z,1.57
2023-03-17T04:29:36.276Z,1.53
2023-03-17T04:30:39.922Z,1.53
2023-03-17T04:31:43.949Z,1.51
2023-03-17T04:32:47.799Z,1.50
2023-03-17T04:33:51.526Z,1.49
2023-03-17T04:34:55.116Z,1.50
2023-03-17T04:36:04.146Z,1.47
2023-03-17T04:37:10.855Z,1.48
2023-03-17T04:38:14.660Z,1.42
2023-03-17T04:39:19.104Z,1.41
2023-03-17T04:40:24.494Z,1.38
2023-03-17T04:41:28.749Z,1.36
2023-03-17T04:42:32.786Z,1.35
2023-03-17T04:43:36.973Z,1.35
2023-03-17T04:44:41.358Z,1.33
2023-03-17T04:45:45.184Z,1.32
2023-03-17T04:46:52.736Z,1.32
2023-03-17T04:47:56.405Z,1.32
2023-03-17T04:49:01.384Z,1.34
2023-03-17T04:50:08.158Z,1.35
2023-03-17T04:51:12.266Z,1.35
2023-03-17T04:52:16.198Z,1.30
2023-03-17T04:53:19.989Z,1.33
2023-03-17T04:54:23.620Z,1.36
2023-03-17T04:55:27.675Z,1.38
2023-03-17T04:56:32.104Z,1.38
2023-03-17T04:57:37.006Z,1.38
2023-03-17T04:58:40.757Z,1.38
2023-03-17T04:59:44.452Z,1.36
2023-03-17T05:00:48.072Z,1.32
2023-03-17T05:01:51.662Z,1.31
2023-03-17T05:02:55.589Z,1.30
2023-03-17T05:03:59.474Z,1.29
2023-03-17T05:05:03.324Z,1.27
2023-03-17T05:06:07.229Z,1.26
2023-03-17T05:07:11.996Z,1.23
2023-03-17T05:08:16.070Z,1.24
2023-03-17T05:09:19.782Z,1.22
2023-03-17T05:10:23.374Z,1.24
2023-03-17T05:11:27.111Z,1.24
2023-03-17T05:12:31.005Z,1.23
2023-03-17T05:13:34.678Z,1.22
2023-03-17T05:14:38.689Z,1.22
2023-03-17T05:15:52.773Z,1.22
2023-03-17T05:16:58.503Z,1.11
2023-03-17T05:18:05.009Z,1.12
2023-03-17T05:19:08.858Z,1.10
2023-03-17T05:20:13.838Z,1.12
2023-03-17T05:21:17.730Z,1.09
2023-03-17T05:22:21.372Z,1.07
2023-03-17T05:23:26.075Z,1.10
2023-03-17T05:24:29.967Z,1.12
2023-03-17T05:25:33.809Z,1.12
2023-03-17T05:26:37.979Z,1.14
2023-03-17T05:27:41.816Z,1.10
2023-03-17T05:28:46.277Z,1.10
2023-03-17T05:29:50.024Z,1.11
2023-03-17T05:30:55.895Z,1.12
2023-03-17T05:32:00.013Z,1.13
2023-03-17T05:33:05.092Z,1.06
2023-03-17T05:34:08.805Z,1.04
2023-03-17T05:35:13.753Z,1.07
2023-03-17T05:36:18.142Z,1.10
2023-03-17T05:37:23.070Z,1.12
2023-03-17T05:38:26.873Z,1.17
2023-03-17T05:39:30.858Z,1.20
2023-03-17T05:40:35.683Z,1.22
2023-03-17T05:41:39.614Z,1.26
2023-03-17T05:42:47.104Z,1.26
2023-03-17T05:43:50.852Z,1.29
2023-03-17T05:44:55.111Z,1.34
2023-03-17T05:46:01.700Z,1.36
2023-03-17T05:47:05.706Z,1.36
2023-03-17T05:48:09.416Z,1.39
2023-03-17T05:49:13.359Z,1.42
2023-03-17T05:50:17.454Z,1.44
2023-03-17T05:51:21.522Z,1.47
2023-03-17T05:52:25.523Z,1.52
2023-03-17T05:53:29.914Z,1.54
2023-03-17T05:54:33.865Z,1.57
2023-03-17T05:55:37.974Z,1.60
2023-03-17T05:56:43.069Z,1.59
2023-03-17T05:57:47.511Z,1.60
2023-03-17T05:58:51.308Z,1.63
2023-03-17T05:59:54.901Z,1.68
2023-03-17T06:00:58.855Z,1.68
2023-03-17T06:02:03.301Z,1.71
2023-03-17T06:03:08.249Z,1.75
2023-03-17T06:04:12.753Z,1.79
2023-03-17T06:05:16.653Z,1.84
2023-03-17T06:06:20.601Z,1.87
2023-03-17T06:07:31.234Z,1.90
2023-03-17T06:08:49.590Z,2.00
2023-03-17T06:09:56.010Z,2.07
2023-03-17T06:10:59.871Z,2.14
2023-03-17T06:12:03.946Z,2.18
2023-03-17T06:13:07.742Z,2.26
2023-03-17T06:14:14.825Z,2.35
2023-03-17T06:15:20.089Z,2.42
2023-03-17T06:16:23.963Z,2.44
2023-03-17T06:17:31.412Z,2.51
2023-03-17T06:18:35.839Z,2.60
2023-03-17T06:19:39.641Z,2.68
2023-03-17T06:20:43.381Z,2.78
2023-03-17T06:21:46.869Z,2.98
2023-03-17T06:23:03.378Z,3.19
2023-03-17T06:24:09.724Z,3.53
2023-03-17T06:25:15.602Z,3.85
2023-03-17T06:26:19.620Z,4.16
2023-03-17T06:27:23.525Z,4.42
2023-03-17T06:28:27.361Z,4.58
2023-03-17T06:29:31.896Z,4.67
2023-03-17T06:30:38.789Z,4.76
2023-03-17T06:31:50.350Z,4.83
2023-03-17T06:32:54.987Z,4.92
2023-03-17T06:33:58.727Z,5.04
2023-03-17T06:35:04.081Z,5.10
2023-03-17T06:36:08.916Z,5.20
2023-03-17T06:37:12.685Z,5.12
2023-03-17T06:38:16.468Z,5.35
2023-03-17T06:39:20.223Z,5.53
2023-03-17T06:40:24.895Z,5.77
2023-03-17T06:41:29.075Z,6.04
2023-03-17T06:42:32.773Z,6.45
2023-03-17T06:43:36.556Z,6.86
2023-03-17T06:44:41.037Z,7.30
2023-03-17T06:45:48.822Z,7.64
2023-03-17T06:46:54.418Z,8.05
2023-03-17T06:47:58.043Z,8.43
2023-03-17T06:49:03.408Z,8.81
2023-03-17T06:50:09.931Z,9.02
2023-03-17T06:51:13.677Z,9.40
2023-03-17T06:52:17.576Z,9.66
2023-03-17T06:53:22.289Z,9.94
2023-03-17T06:54:26.311Z,10.14
2023-03-17T06:55:30.168Z,10.37
2023-03-17T06:56:33.963Z,10.69
2023-03-17T06:57:37.563Z,11.09
2023-03-17T06:58:42.002Z,11.38
2023-03-17T06:59:46.260Z,11.67
2023-03-17T07:00:50.016Z,11.92
2023-03-17T07:01:54.246Z,12.05
2023-03-17T07:02:57.944Z,12.35
2023-03-17T07:04:01.456Z,12.62
2023-03-17T07:05:06.585Z,12.77
2023-03-17T07:06:10.187Z,12.94
2023-03-17T07:07:14.854Z,13.18
2023-03-17T07:08:18.609Z,13.24
2023-03-17T07:09:22.361Z,13.42
2023-03-17T08:00:24.980Z,21.63
2023-03-17T08:01:30.719Z,21.12
2023-03-17T08:02:34.349Z,22.05
2023-03-17T08:03:41.127Z,22.22
2023-03-17T08:04:50.191Z,22.52
2023-03-17T08:05:57.880Z,22.60
2023-03-17T08:07:01.689Z,22.86
2023-03-17T08:08:08.406Z,22.64
2023-03-17T08:09:15.512Z,22.96
2023-03-17T08:10:19.356Z,22.61
2023-03-17T08:11:23.710Z,22.64
2023-03-17T08:12:27.572Z,22.45
2023-03-17T08:13:34.624Z,22.11
2023-03-17T08:14:38.924Z,22.68
2023-03-17T08:15:43.332Z,22.91
2023-03-17T08:16:48.599Z,23.02
2023-03-17T08:17:53.852Z,23.35
2023-03-17T08:18:59.065Z,23.52
2023-03-17T08:20:11.490Z,23.79
2023-03-17T08:21:16.751Z,23.83
2023-03-17T08:22:21.155Z,24.00
2023-03-17T08:23:25.881Z,22.73
2023-03-17T08:24:30.284Z,22.48
2023-03-17T08:25:34.126Z,22.51
2023-03-17T08:26:37.871Z,23.15
2023-03-17T08:27:47.995Z,24.24
2023-03-17T08:28:51.910Z,24.88
2023-03-17T08:29:55.903Z,25.37
2023-03-17T08:31:17.293Z,25.84
2023-03-17T08:32:21.168Z,25.71
2023-03-17T08:33:25.070Z,25.67
2023-03-17T08:34:29.385Z,25.86
2023-03-17T08:35:37.718Z,25.84
2023-03-17T08:36:41.813Z,25.95
2023-03-17T08:37:52.656Z,25.83
2023-03-17T08:39:00.390Z,26.33
2023-03-17T08:40:06.600Z,26.43
2023-03-17T08:41:18.407Z,26.47
2023-03-17T08:42:25.037Z,26.78
2023-03-17T08:43:32.649Z,27.09
2023-03-17T08:44:37.479Z,27.16
2023-03-17T08:45:41.809Z,27.24
2023-03-17T08:46:50.293Z,27.39
2023-03-17T08:47:54.552Z,27.56
2023-03-17T08:49:00.141Z,27.67
2023-03-17T08:50:08.621Z,27.78
2023-03-17T08:51:14.937Z,27.82
2023-03-17T08:52:19.329Z,27.87
2023-03-17T08:53:23.042Z,27.56
2023-03-17T08:54:26.672Z,27.69
2023-03-17T08:55:30.861Z,27.41
2023-03-17T08:56:35.314Z,27.34
2023-03-17T08:57:39.634Z,27.23
2023-03-17T08:58:44.096Z,27.37
2023-03-17T08:59:48.147Z,27.30
2023-03-17T09:00:55.193Z,26.95
2023-03-17T09:02:00.721Z,26.89
2023-03-17T09:03:06.295Z,26.41
2023-03-17T09:04:09.866Z,26.28
2023-03-17T09:05:18.513Z,25.71
2023-03-17T09:06:24.445Z,25.88
2023-03-17T09:07:28.029Z,25.35
2023-03-17T09:08:33.208Z,25.98
2023-03-17T09:09:37.571Z,26.17
2023-03-17T09:10:44.287Z,25.99
2023-03-17T09:11:51.271Z,25.98
2023-03-17T09:13:01.515Z,26.18
2023-03-17T09:14:05.833Z,25.97
2023-03-17T09:15:17.647Z,25.81
2023-03-17T09:16:23.226Z,25.93
2023-03-17T09:17:27.663Z,25.80
2023-03-17T09:18:33.201Z,25.58
2023-03-17T09:19:40.449Z,25.57
2023-03-17T09:20:46.421Z,25.50
2023-03-17T09:21:53.110Z,24.55
2023-03-17T09:23:00.371Z,24.84
2023-03-17T09:24:04.109Z,25.01
2023-03-17T09:25:08.733Z,24.82
2023-03-17T09:26:12.846Z,24.63
2023-03-17T09:27:16.867Z,23.76
2023-03-17T09:28:22.940Z,22.98
2023-03-17T09:29:27.354Z,22.67
2023-03-17T09:30:33.375Z,22.07
2023-03-17T09:31:38.110Z,21.75
2023-03-17T09:32:42.570Z,21.25
2023-03-17T09:33:47.630Z,21.02
2023-03-17T09:34:51.816Z,20.73
2023-03-17T09:35:57.384Z,20.16
2023-03-17T09:37:01.159Z,20.13
2023-03-17T09:38:09.574Z,19.86
2023-03-17T09:39:13.808Z,19.71
2023-03-17T09:40:22.672Z,19.45
2023-03-17T09:42:06.749Z,19.27
2023-03-17T09:43:41.593Z,19.01
2023-03-17T09:45:07.882Z,18.87
2023-03-17T09:46:59.775Z,18.23
2023-03-17T09:48:17.970Z,17.69
2023-03-17T09:49:48.582Z,17.37
2023-03-17T09:51:03.138Z,16.96
2023-03-17T09:52:18.734Z,16.73
2023-03-17T09:53:34.332Z,16.65
2023-03-17T09:54:39.681Z,16.47
2023-03-17T09:55:55.085Z,16.18
2023-03-17T09:57:25.238Z,15.93
2023-03-17T09:58:34.720Z,15.79
2023-03-17T09:59:44.632Z,15.76
2023-03-17T10:00:49.215Z,15.63
2023-03-17T10:01:53.675Z,15.74
2023-03-17T10:02:59.689Z,15.61
2023-03-17T10:04:12.435Z,15.36
2023-03-17T10:05:25.341Z,15.16
2023-03-17T10:06:35.750Z,14.89
2023-03-17T10:08:32.084Z,14.66
2023-03-17T10:10:12.423Z,14.49
2023-03-17T10:11:37.015Z,14.18
2023-03-17T10:13:13.605Z,14.00
2023-03-17T10:14:40.075Z,13.87
2023-03-17T10:15:57.231Z,13.78
2023-03-17T10:17:21.243Z,13.78
2023-03-17T10:18:44.354Z,13.66
2023-03-17T10:20:05.197Z,13.68
2023-03-17T10:21:17.387Z,13.61
2023-03-17T10:22:35.189Z,13.48
2023-03-17T10:23:39.653Z,13.29
2023-03-17T10:24:52.656Z,13.22
2023-03-17T10:26:06.143Z,13.13
2023-03-17T10:27:15.474Z,13.04
2023-03-17T10:28:32.637Z,13.02
2023-03-17T10:29:37.539Z,12.90
2023-03-17T10:30:41.948Z,12.85
2023-03-17T10:31:46.401Z,12.77
2023-03-17T10:32:53.100Z,12.61
2023-03-17T10:34:04.260Z,12.62
2023-03-17T10:35:08.910Z,12.66
2023-03-17T10:36:31.530Z,12.66
2023-03-17T10:37:36.796Z,12.66
2023-03-17T10:38:40.530Z,12.62
2023-03-17T10:39:50.054Z,12.61
2023-03-17T10:41:06.585Z,12.48
2023-03-17T10:42:28.021Z,12.41
2023-03-17T10:43:45.988Z,12.42
2023-03-17T10:45:25.039Z,12.36
2023-03-17T10:46:31.092Z,12.32
2023-03-17T10:47:40.589Z,12.35
2023-03-17T10:49:08.568Z,12.39
2023-03-17T10:50:26.385Z,12.39
2023-03-17T10:51:38.823Z,12.39
2023-03-17T10:52:46.740Z,12.38
2023-03-17T10:53:53.634Z,12.35
2023-03-17T10:55:06.017Z,12.34
2023-03-17T10:56:26.374Z,12.39
2023-03-17T10:57:31.507Z,12.42
2023-03-17T10:58:49.130Z,12.37
2023-03-17T10:59:58.882Z,12.42
2023-03-17T11:01:30.796Z,12.49
2023-03-17T11:02:56.501Z,12.49
2023-03-17T11:04:02.793Z,12.48
2023-03-17T11:05:23.702Z,12.44
2023-03-17T11:06:42.470Z,12.47
2023-03-17T11:07:46.966Z,12.47
2023-03-17T11:08:56.292Z,12.43
2023-03-17T11:10:06.633Z,12.36
2023-03-17T11:11:36.353Z,12.37
2023-03-17T11:12:41.930Z,12.40
2023-03-17T11:13:47.484Z,12.41
2023-03-17T11:15:11.323Z,12.47
2023-03-17T11:16:30.274Z,12.46
2023-03-17T11:18:35.921Z,12.55
2023-03-17T11:20:19.371Z,12.47
2023-03-17T11:22:05.194Z,12.43
2023-03-17T11:24:09.766Z,12.36
2023-03-17T11:25:22.140Z,12.41
2023-03-17T11:27:06.611Z,12.38
2023-03-17T11:28:53.562Z,12.28
2023-03-17T11:30:16.589Z,12.30
2023-03-17T11:31:34.380Z,12.35
2023-03-17T11:33:42.376Z,12.43
2023-03-17T11:35:27.410Z,12.42
2023-03-17T11:37:19.375Z,12.46
2023-03-17T11:38:24.899Z,12.47
2023-03-17T11:39:53.198Z,12.50
2023-03-17T11:41:18.288Z,12.50
2023-03-17T11:42:26.063Z,12.49
2023-03-17T11:44:19.308Z,12.56
2023-03-17T11:46:09.422Z,12.54
2023-03-17T11:47:34.341Z,12.53
2023-03-17T11:48:43.985Z,12.53
2023-03-17T11:50:04.986Z,12.49
2023-03-17T11:51:34.132Z,12.53
2023-03-17T11:52:52.336Z,12.52
2023-03-17T11:54:29.781Z,12.53
2023-03-17T11:55:45.410Z,12.60
2023-03-17T11:56:56.192Z,12.65
2023-03-17T11:58:10.770Z,12.69
2023-03-17T11:59:37.449Z,12.71
2023-03-17T12:00:53.864Z,12.74
2023-03-17T12:02:19.382Z,12.73
2023-03-17T12:04:34.398Z,12.77
2023-03-17T12:05:39.167Z,12.76
2023-03-17T12:06:57.186Z,12.82
2023-03-17T12:08:18.137Z,12.87
2023-03-17T12:09:43.543Z,12.89
2023-03-17T12:10:54.802Z,12.90
2023-03-17T12:12:03.129Z,12.89
2023-03-17T12:13:19.252Z,12.87
2023-03-17T12:14:30.840Z,12.88
2023-03-17T12:15:56.590Z,12.91
2023-03-17T12:17:39.285Z,12.92
2023-03-17T12:19:16.777Z,12.83
2023-03-17T12:20:42.365Z,12.85
2023-03-17T12:22:00.759Z,12.89
2023-03-17T12:23:54.614Z,12.84
2023-03-17T12:25:16.888Z,12.83
2023-03-17T12:26:45.696Z,12.86
2023-03-17T12:28:11.217Z,12.80
2023-03-17T12:29:50.108Z,12.85
2023-03-17T12:31:24.806Z,12.90
2023-03-17T12:32:56.251Z,12.89
2023-03-17T12:34:37.229Z,12.81
2023-03-17T12:35:40.889Z,12.87
2023-03-17T12:36:49.556Z,12.93
2023-03-17T12:37:58.753Z,12.98
2023-03-17T12:39:19.991Z,13.02
2023-03-17T12:40:51.731Z,13.04
2023-03-17T12:42:29.143Z,13.13
2023-03-17T12:44:11.312Z,13.18
2023-03-17T12:46:15.868Z,13.28
2023-03-17T12:48:07.211Z,13.31
2023-03-17T12:49:27.326Z,13.33
2023-03-17T12:51:06.797Z,13.36
2023-03-17T12:52:41.157Z,13.43
2023-03-17T12:53:50.796Z,13.43
2023-03-17T12:54:59.688Z,13.49
2023-03-17T12:56:29.065Z,13.48
2023-03-17T12:57:48.135Z,13.43
2023-03-17T12:59:04.912Z,13.37
2023-03-17T13:00:32.049Z,13.38
2023-03-17T13:01:55.041Z,13.35
2023-03-17T13:03:34.760Z,13.19
2023-03-17T13:05:04.625Z,13.11
2023-03-17T13:06:21.546Z,13.17
2023-03-17T13:07:31.678Z,13.17
2023-03-17T13:08:42.535Z,13.17
2023-03-17T13:09:55.042Z,13.19
2023-03-17T13:11:29.681Z,13.26
2023-03-17T13:12:42.656Z,13.21
2023-03-17T13:13:55.449Z,13.22
2023-03-17T13:14:59.858Z,13.21
2023-03-17T13:16:06.330Z,13.26
2023-03-17T13:17:19.934Z,13.28
2023-03-17T13:18:50.409Z,13.29
2023-03-17T13:20:10.210Z,13.28
2023-03-17T13:21:18.759Z,13.28
2023-03-17T13:22:23.410Z,13.28
2023-03-17T13:23:51.057Z,13.31
2023-03-17T13:25:35.594Z,13.31
2023-03-17T13:27:04.639Z,13.31
2023-03-17T13:28:15.482Z,13.33
2023-03-17T13:29:47.414Z,13.32
2023-03-17T13:31:14.754Z,13.42
2023-03-17T13:32:27.128Z,13.40
2023-03-17T13:33:34.097Z,13.28
2023-03-17T13:34:53.069Z,13.21
2023-03-17T13:36:38.734Z,13.20
2023-03-17T13:38:00.219Z,13.18
2023-03-17T13:39:34.850Z,13.17
2023-03-17T13:41:35.816Z,13.18
2023-03-17T13:42:42.555Z,13.21
2023-03-17T13:44:13.463Z,13.19
2023-03-17T13:45:40.202Z,13.15
2023-03-17T13:46:48.371Z,13.15
2023-03-17T13:47:52.636Z,13.10
2023-03-17T13:49:02.276Z,13.04
2023-03-17T13:50:17.294Z,13.04
2023-03-17T13:51:32.351Z,13.12
2023-03-17T13:52:48.982Z,13.18
2023-03-17T13:54:08.377Z,13.10
2023-03-17T13:55:17.964Z,13.13
2023-03-17T13:56:47.960Z,13.04
2023-03-17T13:58:18.229Z,13.08
2023-03-17T13:59:51.381Z,13.12
2023-03-17T14:01:04.415Z,13.14
2023-03-17T14:02:23.901Z,13.17
2023-03-17T14:03:54.150Z,13.16
2023-03-17T14:05:35.718Z,13.21
2023-03-17T14:06:42.887Z,13.21
2023-03-17T14:08:22.361Z,13.21
2023-03-17T14:09:41.615Z,13.12
2023-03-17T14:11:22.626Z,13.04
2023-03-17T14:12:58.946Z,12.97
2023-03-17T14:14:32.499Z,12.94
2023-03-17T14:16:08.909Z,12.86
2023-03-17T14:17:29.288Z,12.81
2023-03-17T14:18:44.407Z,12.82
2023-03-17T14:20:18.585Z,12.77
2023-03-17T14:21:26.930Z,12.76
2023-03-17T14:22:30.978Z,12.75
2023-03-17T14:23:38.540Z,12.79
2023-03-17T14:24:45.666Z,12.75
2023-03-17T14:25:50.686Z,12.67
2023-03-17T14:26:55.624Z,12.65
2023-03-17T14:28:00.879Z,12.68
2023-03-17T14:29:05.599Z,12.69
2023-03-17T14:30:33.650Z,12.67
2023-03-17T14:31:38.755Z,12.68
2023-03-17T14:32:49.591Z,12.69
2023-03-17T14:34:00.611Z,12.69
2023-03-17T14:35:05.140Z,12.67
2023-03-17T14:36:14.618Z,12.64
2023-03-17T14:37:19.176Z,12.64
2023-03-17T14:38:36.972Z,12.62
2023-03-17T14:39:53.913Z,12.63
2023-03-17T14:41:22.860Z,12.67
2023-03-17T14:42:34.038Z,12.75
2023-03-17T14:43:37.611Z,12.77
2023-03-17T14:44:43.700Z,12.82
2023-03-17T14:46:00.490Z,12.81
2023-03-17T14:47:12.912Z,12.76
2023-03-17T14:48:25.579Z,12.77
2023-03-17T14:49:33.567Z,12.71
2023-03-17T14:50:37.153Z,12.76
2023-03-17T14:51:45.836Z,12.72
2023-03-17T14:52:52.044Z,12.75
2023-03-17T14:54:01.386Z,12.72
2023-03-17T14:55:06.784Z,12.77
2023-03-17T14:56:13.297Z,12.81
2023-03-17T14:57:31.188Z,12.76
2023-03-17T14:58:45.023Z,12.71
2023-03-17T15:00:22.874Z,12.72
2023-03-17T15:01:45.674Z,12.71
2023-03-17T15:03:03.553Z,12.78
2023-03-17T15:04:13.233Z,12.80
2023-03-17T15:05:42.603Z,12.81
2023-03-17T15:06:54.289Z,12.80
2023-03-17T15:07:58.098Z,12.82
2023-03-17T15:09:28.531Z,12.83
2023-03-17T15:10:43.636Z,12.81
2023-03-17T15:11:48.453Z,12.86
2023-03-17T15:13:02.537Z,12.80
2023-03-17T15:14:36.589Z,12.80
2023-03-17T15:15:41.780Z,12.80
2023-03-17T15:16:51.871Z,12.77
2023-03-17T15:18:07.447Z,12.74
2023-03-17T15:19:41.449Z,12.68
2023-03-17T15:20:45.985Z,12.64
2023-03-17T15:21:52.858Z,12.70
2023-03-17T15:23:14.503Z,12.66
2023-03-17T15:24:39.416Z,12.68
2023-03-17T15:25:47.909Z,12.69
2023-03-17T15:27:08.963Z,12.70
2023-03-17T15:28:20.994Z,12.66
2023-03-17T15:30:50.712Z,12.52
2023-03-17T15:32:11.384Z,12.48
2023-03-17T15:33:36.461Z,12.43
2023-03-17T15:34:41.668Z,12.46
2023-03-17T15:35:47.023Z,12.45
2023-03-17T15:36:53.108Z,12.45
2023-03-17T15:37:57.126Z,12.39
2023-03-17T15:39:02.532Z,12.38
2023-03-17T15:40:09.499Z,12.37
2023-03-17T15:41:13.224Z,12.34
2023-03-17T15:42:22.822Z,12.31
2023-03-17T15:43:27.283Z,12.33
2023-03-17T15:44:31.444Z,12.34
2023-03-17T15:45:35.398Z,12.25
2023-03-17T15:46:39.791Z,12.23
2023-03-17T15:47:47.497Z,12.24
2023-03-17T15:48:51.858Z,12.26
2023-03-17T15:50:12.753Z,12.29
2023-03-17T15:51:19.893Z,12.27
2023-03-17T15:52:29.239Z,12.31
2023-03-17T15:53:33.329Z,12.29
2023-03-17T15:54:37.135Z,12.25
2023-03-17T15:55:48.803Z,12.29
2023-03-17T15:56:56.069Z,12.20
2023-03-17T15:58:00.445Z,12.17
2023-03-17T15:59:04.955Z,12.09
2023-03-17T16:00:15.172Z,12.05
2023-03-17T16:01:20.850Z,12.03
2023-03-17T16:02:36.653Z,12.06
2023-03-17T16:03:42.471Z,12.02
2023-03-17T16:04:50.484Z,12.03
2023-03-17T16:05:55.834Z,12.01
2023-03-17T16:06:59.636Z,12.02
2023-03-17T16:08:05.832Z,12.05
2023-03-17T16:09:17.733Z,12.05
2023-03-17T16:10:33.927Z,12.04
2023-03-17T16:11:41.194Z,12.00
2023-03-17T16:12:45.979Z,11.98
2023-03-17T16:13:49.527Z,11.97
2023-03-17T16:14:53.490Z,11.91
2023-03-17T16:16:01.182Z,11.85